Time;durP1;ratioP1;P1;durP2;ratioP2;P2;SDS_P1;SDS_P2;PMS_P1;PMS_P2;Temp;Humidity;BMP_temperature;BMP_pressure;BME280_temperature;BME280_humidity;BME280_pressure;Samples;Min_cycle;Max_cycle;Signal;HPM_P1;HPM_P2
2023/05/11 00:01:08;;;;;;;1.80;1.50;;;17.80;86.20;;;;;;5006636;28;21076;-70
2023/05/11 00:03:37;;;;;;;1.60;1.43;;;17.80;86.50;;;;;;4992493;28;20473;-70
2023/05/11 00:06:05;;;;;;;1.60;1.40;;;17.80;86.30;;;;;;5006586;28;20481;-69
2023/05/11 00:08:36;;;;;;;1.70;1.27;;;17.80;86.50;;;;;;4999707;28;20532;-68
2023/05/11 00:11:08;;;;;;;1.87;1.57;;;17.80;86.40;;;;;;4999349;28;20543;-68
2023/05/11 00:13:36;;;;;;;1.60;1.50;;;17.80;86.40;;;;;;5011565;28;20485;-68
2023/05/11 00:16:05;;;;;;;1.53;1.20;;;17.80;86.40;;;;;;5001764;28;20538;-69
2023/05/11 00:18:33;;;;;;;1.70;1.50;;;17.80;86.30;;;;;;5002327;28;20496;-68
2023/05/11 00:21:02;;;;;;;1.30;0.90;;;17.80;86.40;;;;;;5021722;28;20464;-69
2023/05/11 00:23:30;;;;;;;1.17;1.07;;;17.80;86.30;;;;;;4999687;28;20468;-69
2023/05/11 00:26:00;;;;;;;1.43;1.33;;;17.80;86.30;;;;;;4996156;28;20530;-69
2023/05/11 00:28:28;;;;;;;1.10;0.80;;;17.80;86.40;;;;;;4982993;28;20459;-69
2023/05/11 00:30:57;;;;;;;1.67;1.17;;;17.80;86.50;;;;;;5003115;28;20995;-67
2023/05/11 00:33:26;;;;;;;1.60;1.17;;;17.80;86.70;;;;;;5005832;28;20588;-69
2023/05/11 00:35:54;;;;;;;1.87;1.53;;;17.80;86.70;;;;;;5007392;28;20475;-69
2023/05/11 00:38:22;;;;;;;1.40;1.10;;;17.80;86.60;;;;;;5002689;28;20464;-68
2023/05/11 00:40:51;;;;;;;1.63;1.33;;;17.80;87.00;;;;;;5007137;28;20878;-68
2023/05/11 00:43:21;;;;;;;1.67;1.20;;;17.80;86.70;;;;;;5005456;28;20487;-67
2023/05/11 00:45:51;;;;;;;1.20;1.10;;;17.70;86.60;;;;;;4988030;28;20536;-67
2023/05/11 00:48:19;;;;;;;2.13;1.47;;;17.80;86.80;;;;;;4986290;28;20500;-69
2023/05/11 00:50:48;;;;;;;1.40;1.10;;;17.70;86.70;;;;;;4997666;28;20818;-67
2023/05/11 00:53:16;;;;;;;1.23;1.10;;;17.80;86.80;;;;;;5003839;28;20557;-68
2023/05/11 00:55:45;;;;;;;1.87;1.20;;;17.70;86.70;;;;;;4991056;28;20455;-68
2023/05/11 00:58:17;;;;;;;1.50;1.40;;;17.70;86.80;;;;;;5006943;28;20872;-68
2023/05/11 01:00:47;;;;;;;2.30;1.30;;;17.70;86.80;;;;;;5003434;28;20531;-67
2023/05/11 01:03:16;;;;;;;1.47;1.10;;;17.70;86.80;;;;;;5006751;28;20468;-69
2023/05/11 01:05:52;;;;;;;1.43;1.10;;;17.70;87.00;;;;;;5006770;28;20552;-68
2023/05/11 01:08:32;;;;;;;1.63;1.17;;;17.70;87.00;;;;;;5001763;28;20520;-69
2023/05/11 01:11:08;;;;;;;1.40;1.10;;;17.70;86.80;;;;;;5006660;28;20453;-68
2023/05/11 01:13:42;;;;;;;1.77;1.40;;;17.70;86.80;;;;;;4997660;28;20473;-67
2023/05/11 01:16:17;;;;;;;1.30;1.10;;;17.70;86.80;;;;;;4998638;28;20492;-69
2023/05/11 01:18:52;;;;;;;1.37;1.20;;;17.70;86.80;;;;;;5006141;28;20531;-67
2023/05/11 01:21:21;;;;;;;1.83;1.30;;;17.70;86.60;;;;;;5007049;28;20896;-69
2023/05/11 01:24:12;;;;;;;1.37;1.10;;;17.70;86.50;;;;;;5004719;28;20472;-67
2023/05/11 01:27:06;;;;;;;1.73;1.40;;;17.70;86.40;;;;;;5010721;28;20528;-69
2023/05/11 01:30:05;;;;;;;2.30;1.23;;;17.70;86.30;;;;;;5016372;28;20839;-69
2023/05/11 01:32:39;;;;;;;1.77;1.10;;;17.70;86.40;;;;;;5012256;28;20907;-68
2023/05/11 01:35:17;;;;;;;1.63;1.27;;;17.60;86.40;;;;;;5015743;28;20468;-68
2023/05/11 01:37:51;;;;;;;1.57;1.47;;;17.60;86.30;;;;;;5005056;28;20507;-69
2023/05/11 01:40:24;;;;;;;1.90;1.60;;;17.60;86.50;;;;;;5005975;28;20465;-69
2023/05/11 01:42:58;;;;;;;2.67;1.40;;;17.60;86.50;;;;;;5004769;28;20500;-70
2023/05/11 01:45:28;;;;;;;1.77;1.20;;;17.60;86.50;;;;;;5020780;28;20523;-69
2023/05/11 01:48:02;;;;;;;2.90;1.30;;;17.60;87.80;;;;;;5002887;28;20446;-69
2023/05/11 01:50:32;;;;;;;1.90;1.70;;;17.60;86.40;;;;;;5004512;28;20475;-68
2023/05/11 01:53:04;;;;;;;1.90;1.37;;;17.60;86.60;;;;;;5009362;28;20472;-69
2023/05/11 01:55:35;;;;;;;1.70;1.33;;;17.60;86.60;;;;;;5006914;28;20858;-69
2023/05/11 01:58:05;;;;;;;1.47;1.37;;;17.60;86.70;;;;;;5004255;28;20484;-68
2023/05/11 02:00:34;;;;;;;2.00;1.27;;;17.60;86.70;;;;;;5001115;28;20481;-68
2023/05/11 02:03:06;;;;;;;2.00;1.80;;;17.60;86.70;;;;;;5007520;28;20461;-68
2023/05/11 02:05:36;;;;;;;1.70;1.50;;;17.60;86.50;;;;;;5008157;28;20476;-69
2023/05/11 02:08:06;;;;;;;1.70;1.40;;;17.60;86.50;;;;;;4997047;28;20459;-69
2023/05/11 02:10:36;;;;;;;1.60;1.30;;;17.60;86.40;;;;;;4999765;28;20469;-68
2023/05/11 02:13:06;;;;;;;1.90;1.40;;;17.60;86.40;;;;;;5006173;28;21004;-69
2023/05/11 02:15:37;;;;;;;2.63;1.90;;;17.60;86.40;;;;;;5020322;28;20472;-68
2023/05/11 02:18:12;;;;;;;2.90;1.70;;;17.60;86.40;;;;;;5002331;28;20438;-69
2023/05/11 02:20:44;;;;;;;2.53;1.90;;;17.60;86.50;;;;;;5007582;28;20448;-68
2023/05/11 02:23:14;;;;;;;2.00;1.13;;;17.60;86.40;;;;;;5004141;28;20464;-69
2023/05/11 02:25:43;;;;;;;2.47;2.00;;;17.60;86.20;;;;;;5006813;28;21039;-68
2023/05/11 02:28:12;;;;;;;2.13;1.93;;;17.60;86.20;;;;;;5001338;28;20430;-69
2023/05/11 02:30:46;;;;;;;1.70;1.30;;;17.60;86.30;;;;;;4994545;28;20508;-69
2023/05/11 02:33:21;;;;;;;2.00;1.70;;;17.60;86.50;;;;;;4995292;28;20465;-69
2023/05/11 02:35:54;;;;;;;2.10;1.90;;;17.60;86.50;;;;;;5007228;28;20481;-69
2023/05/11 02:38:32;;;;;;;2.00;1.60;;;17.50;86.50;;;;;;5017534;28;20456;-67
2023/05/11 02:41:06;;;;;;;2.90;2.03;;;17.50;86.50;;;;;;4986342;28;20477;-69
2023/05/11 02:43:39;;;;;;;2.03;1.40;;;17.50;86.50;;;;;;4988472;28;20461;-69
2023/05/11 02:46:13;;;;;;;2.67;1.63;;;17.60;86.80;;;;;;5003706;28;20947;-69
2023/05/11 02:48:49;;;;;;;2.23;2.03;;;17.50;86.60;;;;;;4998224;28;20537;-69
2023/05/11 02:51:20;;;;;;;2.43;1.70;;;17.50;86.50;;;;;;4996178;28;20485;-73
2023/05/11 02:53:54;;;;;;;2.17;1.20;;;17.50;86.60;;;;;;4999576;28;20466;-73
2023/05/11 02:56:24;;;;;;;1.57;1.47;;;17.50;86.70;;;;;;5002032;28;20457;-73
2023/05/11 02:58:55;;;;;;;1.70;1.30;;;17.50;86.70;;;;;;4999294;28;20466;-73
2023/05/11 03:01:26;;;;;;;2.00;1.70;;;17.50;86.70;;;;;;5002039;28;21115;-72
2023/05/11 03:03:59;;;;;;;2.17;1.70;;;17.50;86.60;;;;;;5004755;28;20477;-73
2023/05/11 03:06:30;;;;;;;2.80;1.97;;;17.50;86.70;;;;;;5006693;28;20449;-73
2023/05/11 03:08:59;;;;;;;2.30;1.87;;;17.50;86.60;;;;;;5002970;28;20481;-72
2023/05/11 03:11:28;;;;;;;2.50;1.80;;;17.50;86.50;;;;;;4978892;28;20433;-72
2023/05/11 03:13:57;;;;;;;2.37;2.17;;;17.50;86.30;;;;;;5002412;28;20481;-72
2023/05/11 03:16:26;;;;;;;1.70;1.60;;;17.50;86.50;;;;;;5014266;28;20831;-72
2023/05/11 03:18:56;;;;;;;2.57;2.07;;;17.50;86.20;;;;;;4999528;28;20463;-70
2023/05/11 03:21:27;;;;;;;2.93;2.00;;;17.50;86.20;;;;;;5004754;28;20468;-69
2023/05/11 03:23:57;;;;;;;1.97;1.50;;;17.50;86.20;;;;;;5004288;28;20476;-68
2023/05/11 03:26:29;;;;;;;2.30;1.63;;;17.50;86.10;;;;;;5005287;28;20449;-68
2023/05/11 03:29:00;;;;;;;3.83;1.90;;;17.50;86.10;;;;;;5004561;28;20484;-69
2023/05/11 03:31:28;;;;;;;2.00;1.80;;;17.50;86.10;;;;;;5000766;28;20811;-70
2023/05/11 03:33:59;;;;;;;1.97;1.40;;;17.50;86.30;;;;;;5003902;28;20472;-68
2023/05/11 03:36:32;;;;;;;2.13;1.20;;;17.50;86.40;;;;;;5006025;28;20864;-69
2023/05/11 03:39:03;;;;;;;1.70;1.33;;;17.40;86.30;;;;;;4998917;28;20477;-68
2023/05/11 03:41:34;;;;;;;1.83;1.30;;;17.40;86.40;;;;;;5001386;28;20729;-67
2023/05/11 03:44:06;;;;;;;2.07;1.17;;;17.40;86.40;;;;;;4996277;28;20469;-69
2023/05/11 03:46:39;;;;;;;1.53;1.27;;;17.40;86.40;;;;;;5005861;28;20670;-68
2023/05/11 03:49:09;;;;;;;2.27;1.87;;;17.40;86.50;;;;;;5002402;28;20448;-69
2023/05/11 03:51:42;;;;;;;2.53;2.23;;;17.40;86.50;;;;;;5001516;28;20477;-69
2023/05/11 03:54:12;;;;;;;2.50;2.10;;;17.40;86.40;;;;;;4998903;28;20476;-69
2023/05/11 03:56:41;;;;;;;1.73;1.60;;;17.40;86.40;;;;;;5005396;28;20453;-69
2023/05/11 03:59:13;;;;;;;1.83;1.70;;;17.40;86.40;;;;;;4992835;28;20450;-68
2023/05/11 04:01:43;;;;;;;2.77;1.97;;;17.40;86.20;;;;;;5004217;28;20472;-67
2023/05/11 04:04:11;;;;;;;3.50;1.70;;;17.40;86.20;;;;;;5002778;28;21004;-68
2023/05/11 04:06:40;;;;;;;2.00;1.80;;;17.40;86.30;;;;;;5007365;28;20812;-68
2023/05/11 04:09:19;;;;;;;1.83;1.67;;;17.40;86.40;;;;;;4991795;28;20673;-69
2023/05/11 04:11:47;;;;;;;2.90;2.40;;;17.40;86.30;;;;;;4997989;28;20426;-67
2023/05/11 04:14:17;;;;;;;2.50;2.30;;;17.40;86.10;;;;;;5005851;28;20893;-70
2023/05/11 04:16:45;;;;;;;1.80;1.40;;;17.40;86.30;;;;;;5000591;28;20438;-68
2023/05/11 04:19:15;;;;;;;2.73;1.50;;;17.40;86.50;;;;;;5001180;28;20500;-68
2023/05/11 04:21:43;;;;;;;1.77;1.60;;;17.40;86.30;;;;;;5014731;28;20503;-67
2023/05/11 04:24:12;;;;;;;2.37;1.70;;;17.40;86.30;;;;;;5004883;28;20469;-68
2023/05/11 04:26:42;;;;;;;1.83;1.63;;;17.30;85.80;;;;;;4990066;28;20454;-69
2023/05/11 04:29:10;;;;;;;2.63;2.00;;;17.30;85.70;;;;;;5002493;28;20464;-68
2023/05/11 04:31:38;;;;;;;2.20;2.00;;;17.30;85.70;;;;;;5006522;28;20437;-69
2023/05/11 04:34:08;;;;;;;6.17;2.13;;;17.30;85.90;;;;;;5000318;28;20992;-69
2023/05/11 04:36:38;;;;;;;3.33;1.33;;;17.30;87.10;;;;;;5007763;28;20449;-68
2023/05/11 04:39:06;;;;;;;1.90;1.70;;;17.30;86.10;;;;;;5008850;28;20449;-69
2023/05/11 04:41:39;;;;;;;1.70;1.60;;;17.30;86.00;;;;;;4999302;28;20949;-67
2023/05/11 04:44:10;;;;;;;3.97;1.50;;;17.30;86.30;;;;;;5008202;28;20489;-68
2023/05/11 04:46:39;;;;;;;1.97;1.50;;;17.30;86.30;;;;;;5007921;28;20783;-68
2023/05/11 04:49:08;;;;;;;3.27;1.63;;;17.30;86.40;;;;;;5006870;28;20593;-68
2023/05/11 04:51:39;;;;;;;3.10;2.40;;;17.30;86.20;;;;;;5006359;28;21012;-69
2023/05/11 04:54:09;;;;;;;2.97;2.00;;;17.30;85.90;;;;;;5003180;28;20461;-68
2023/05/11 04:56:39;;;;;;;2.40;1.80;;;17.30;86.00;;;;;;5022812;28;20835;-68
2023/05/11 04:59:10;;;;;;;2.70;2.00;;;17.30;86.10;;;;;;5008736;28;20444;-69
2023/05/11 05:01:39;;;;;;;2.20;2.00;;;17.30;86.10;;;;;;5004432;28;21018;-67
2023/05/11 05:04:07;;;;;;;1.77;1.27;;;17.30;86.10;;;;;;4997470;28;20438;-68
2023/05/11 05:06:37;;;;;;;3.20;1.80;;;17.30;86.20;;;;;;5007405;28;20425;-69
2023/05/11 05:09:05;;;;;;;4.07;3.00;;;17.30;86.30;;;;;;5001453;28;20437;-68
2023/05/11 05:11:34;;;;;;;2.43;1.77;;;17.30;85.30;;;;;;5007557;28;20813;-69
2023/05/11 05:14:03;;;;;;;2.43;2.03;;;17.30;86.10;;;;;;4999094;28;20493;-67
2023/05/11 05:16:33;;;;;;;3.17;2.30;;;17.20;86.00;;;;;;5006315;28;20441;-68
2023/05/11 05:19:02;;;;;;;2.23;1.70;;;17.20;85.70;;;;;;5005862;28;20438;-67
2023/05/11 05:21:33;;;;;;;3.07;2.33;;;17.20;86.00;;;;;;5007850;28;20458;-69
2023/05/11 05:24:02;;;;;;;3.10;1.87;;;17.20;86.00;;;;;;5006753;28;20516;-68
2023/05/11 05:26:31;;;;;;;2.90;2.60;;;17.20;86.10;;;;;;5005636;28;20446;-69
2023/05/11 05:29:00;;;;;;;2.40;2.00;;;17.20;86.10;;;;;;5007351;28;20448;-69
2023/05/11 05:31:29;;;;;;;2.23;1.63;;;17.20;86.10;;;;;;5001677;28;20473;-67
2023/05/11 05:33:59;;;;;;;3.90;2.50;;;17.20;86.20;;;;;;5013474;28;20815;-67
2023/05/11 05:36:28;;;;;;;2.80;2.30;;;17.20;86.00;;;;;;5010336;28;20484;-69
2023/05/11 05:38:56;;;;;;;2.23;2.03;;;17.20;86.00;;;;;;5003879;28;20449;-68
2023/05/11 05:41:25;;;;;;;2.00;1.80;;;17.20;85.80;;;;;;4994949;28;20507;-68
2023/05/11 05:43:55;;;;;;;2.03;1.83;;;17.20;86.20;;;;;;4993956;28;20976;-68
2023/05/11 05:46:23;;;;;;;2.87;2.10;;;17.20;86.10;;;;;;4999531;28;21065;-67
2023/05/11 05:48:52;;;;;;;4.40;2.17;;;17.20;86.00;;;;;;5007471;28;20438;-68
2023/05/11 05:51:22;;;;;;;2.40;1.80;;;17.20;86.10;;;;;;5005500;28;20450;-69
2023/05/11 05:53:50;;;;;;;2.43;2.03;;;17.20;86.20;;;;;;5006107;28;20520;-68
2023/05/11 05:56:20;;;;;;;3.17;2.03;;;17.20;86.30;;;;;;5022789;28;20902;-69
2023/05/11 05:58:49;;;;;;;3.80;2.50;;;17.20;86.30;;;;;;5000038;28;20446;-69
2023/05/11 06:01:17;;;;;;;3.13;2.53;;;17.20;86.20;;;;;;4996067;28;20474;-66
2023/05/11 06:03:46;;;;;;;2.13;1.87;;;17.20;86.30;;;;;;5020689;28;21337;-68
2023/05/11 06:06:15;;;;;;;2.50;1.90;;;17.20;86.30;;;;;;5005901;28;21167;-69
2023/05/11 06:08:44;;;;;;;2.77;2.10;;;17.20;86.30;;;;;;5004625;28;20445;-69
2023/05/11 06:11:13;;;;;;;2.47;2.27;;;17.20;86.30;;;;;;5004868;28;20837;-69
2023/05/11 06:13:41;;;;;;;1.80;1.53;;;17.20;86.30;;;;;;5023322;28;20484;-69
2023/05/11 06:16:10;;;;;;;2.80;2.30;;;17.20;86.30;;;;;;5005752;28;20482;-69
2023/05/11 06:18:39;;;;;;;2.23;1.93;;;17.20;86.40;;;;;;5002598;28;20445;-67
2023/05/11 06:21:08;;;;;;;2.70;2.50;;;17.10;86.40;;;;;;4994836;28;20482;-68
2023/05/11 06:23:36;;;;;;;3.43;2.23;;;17.10;86.40;;;;;;5005118;28;20457;-68
2023/05/11 06:26:06;;;;;;;2.27;2.07;;;17.20;86.50;;;;;;5004261;28;20488;-68
2023/05/11 06:28:35;;;;;;;1.90;1.50;;;17.20;86.50;;;;;;5007484;28;20442;-67
2023/05/11 06:31:06;;;;;;;2.23;1.70;;;17.10;86.50;;;;;;5003337;28;20485;-70
2023/05/11 06:33:37;;;;;;;1.50;1.30;;;17.10;86.50;;;;;;5007584;28;20468;-67
2023/05/11 06:36:11;;;;;;;2.30;2.10;;;17.10;86.50;;;;;;5001534;28;20480;-69
2023/05/11 06:38:40;;;;;;;2.17;1.70;;;17.10;86.50;;;;;;5011274;28;20442;-69
2023/05/11 06:41:10;;;;;;;3.63;2.10;;;17.10;86.50;;;;;;4994520;28;20473;-69
2023/05/11 06:43:39;;;;;;;3.37;2.70;;;17.10;86.50;;;;;;5003400;28;20966;-68
2023/05/11 06:46:18;;;;;;;3.20;2.27;;;17.10;86.50;;;;;;4993847;28;20514;-68
2023/05/11 06:48:47;;;;;;;5.50;3.63;;;17.10;86.40;;;;;;5002698;28;20446;-68
2023/05/11 06:51:16;;;;;;;2.40;2.20;;;17.10;86.50;;;;;;4995559;28;20482;-68
2023/05/11 06:53:44;;;;;;;2.50;1.97;;;17.10;86.50;;;;;;5004538;28;20461;-68
2023/05/11 06:56:14;;;;;;;3.30;2.30;;;17.10;86.50;;;;;;5005429;28;20483;-68
2023/05/11 06:58:43;;;;;;;3.20;2.60;;;17.10;86.70;;;;;;5021016;28;20529;-68
2023/05/11 07:01:11;;;;;;;5.43;3.80;;;17.10;86.70;;;;;;5009283;28;20473;-67
2023/05/11 07:03:40;;;;;;;2.63;2.20;;;17.10;86.60;;;;;;5004209;28;20472;-68
2023/05/11 07:06:08;;;;;;;3.37;2.37;;;17.10;86.70;;;;;;5021042;28;20924;-68
2023/05/11 07:08:37;;;;;;;3.33;2.53;;;17.10;86.70;;;;;;5001606;28;20450;-67
2023/05/11 07:11:06;;;;;;;2.43;2.10;;;17.10;86.60;;;;;;4998413;28;20523;-68
2023/05/11 07:13:35;;;;;;;2.73;2.00;;;17.10;86.60;;;;;;5005654;28;20461;-69
2023/05/11 07:16:04;;;;;;;2.43;2.03;;;17.10;86.70;;;;;;5002614;28;20505;-67
2023/05/11 07:18:33;;;;;;;2.83;2.47;;;17.10;86.70;;;;;;5008072;28;20442;-70
2023/05/11 07:21:01;;;;;;;4.13;2.67;;;17.10;86.70;;;;;;5001305;28;20584;-68
2023/05/11 07:23:29;;;;;;;2.57;1.93;;;17.10;86.80;;;;;;5002652;28;20519;-68
2023/05/11 07:25:58;;;;;;;4.50;2.50;;;17.10;86.70;;;;;;4996382;28;20682;-67
2023/05/11 07:28:27;;;;;;;2.93;2.47;;;17.10;86.70;;;;;;5007480;28;20813;-67
2023/05/11 07:30:57;;;;;;;2.53;2.20;;;17.10;86.70;;;;;;5019493;28;20479;-67
2023/05/11 07:33:25;;;;;;;2.60;1.97;;;17.10;86.70;;;;;;4982938;28;20469;-67
2023/05/11 07:35:54;;;;;;;2.80;1.73;;;17.10;86.70;;;;;;4989761;28;20476;-68
2023/05/11 07:38:22;;;;;;;2.40;1.87;;;17.10;86.80;;;;;;5004631;28;20480;-68
2023/05/11 07:40:51;;;;;;;3.17;2.40;;;17.00;86.60;;;;;;5006163;28;20476;-68
2023/05/11 07:43:20;;;;;;;2.47;1.90;;;17.10;86.70;;;;;;5009309;28;20480;-68
2023/05/11 07:45:48;;;;;;;3.47;2.43;;;17.10;86.70;;;;;;5004462;28;20730;-68
2023/05/11 07:48:18;;;;;;;3.03;2.60;;;17.00;86.70;;;;;;5007668;28;20446;-69
2023/05/11 07:50:48;;;;;;;3.77;2.90;;;17.00;86.70;;;;;;5008213;28;20469;-68
2023/05/11 07:53:17;;;;;;;5.13;3.93;;;17.00;86.70;;;;;;5011840;28;20468;-69
2023/05/11 07:55:45;;;;;;;3.20;2.63;;;17.00;86.70;;;;;;5007192;28;20481;-68
2023/05/11 07:58:14;;;;;;;4.57;3.63;;;17.00;86.70;;;;;;5007936;28;20976;-67
2023/05/11 08:00:42;;;;;;;3.50;2.90;;;17.00;86.70;;;;;;5006106;28;20822;-68
2023/05/11 08:03:11;;;;;;;2.83;2.20;;;17.00;86.80;;;;;;5008373;28;20567;-68
2023/05/11 08:05:41;;;;;;;9.07;7.05;;;17.00;86.80;;;;;;5008222;28;20435;-68
2023/05/11 08:08:10;;;;;;;7.83;6.30;;;16.90;87.10;;;;;;5004467;28;20667;-66
2023/05/11 08:10:39;;;;;;;7.70;6.03;;;16.90;87.20;;;;;;4996240;28;20477;-67
2023/05/11 08:13:07;;;;;;;7.17;6.20;;;16.90;87.30;;;;;;4995659;28;20517;-68
2023/05/11 08:15:36;;;;;;;8.43;6.33;;;16.90;87.30;;;;;;4990093;28;20481;-68
2023/05/11 08:18:05;;;;;;;8.27;6.60;;;16.90;87.20;;;;;;4997557;28;20437;-67
2023/05/11 08:20:34;;;;;;;8.20;6.23;;;16.90;87.10;;;;;;5012366;28;20961;-68
2023/05/11 08:23:06;;;;;;;8.73;4.90;;;16.90;87.20;;;;;;4994258;28;20522;-68
2023/05/11 08:25:34;;;;;;;7.00;5.47;;;16.90;87.10;;;;;;4985430;28;20478;-67
2023/05/11 08:28:03;;;;;;;5.20;4.77;;;16.90;87.00;;;;;;4991600;28;20427;-67
2023/05/11 08:30:32;;;;;;;7.00;5.00;;;16.90;87.00;;;;;;4983840;28;20541;-69
2023/05/11 08:33:02;;;;;;;6.23;4.73;;;16.90;87.00;;;;;;4991551;28;20876;-68
2023/05/11 08:35:31;;;;;;;5.33;4.37;;;17.00;87.10;;;;;;4986197;28;20482;-69
2023/05/11 08:38:00;;;;;;;5.50;4.30;;;16.90;87.00;;;;;;4988629;28;20454;-68
2023/05/11 08:40:31;;;;;;;5.23;4.67;;;16.90;86.90;;;;;;4995543;28;20466;-67
2023/05/11 08:43:04;;;;;;;4.47;4.07;;;16.90;87.00;;;;;;5006906;28;20485;-67
2023/05/11 08:45:35;;;;;;;6.93;4.47;;;16.90;86.90;;;;;;5005264;28;20555;-68
2023/05/11 08:48:06;;;;;;;4.43;4.00;;;16.90;86.90;;;;;;5004493;28;20453;-68
2023/05/11 08:50:35;;;;;;;6.10;3.57;;;16.90;86.80;;;;;;5002368;28;20485;-67
2023/05/11 08:53:03;;;;;;;4.00;3.70;;;16.90;87.00;;;;;;5002701;28;20468;-68
2023/05/11 08:55:34;;;;;;;7.10;4.53;;;16.90;87.00;;;;;;5000665;28;20862;-68
2023/05/11 08:58:06;;;;;;;4.60;4.20;;;16.90;86.90;;;;;;5014707;28;20545;-68
2023/05/11 09:00:34;;;;;;;4.90;4.37;;;16.90;87.00;;;;;;5006705;28;20469;-68
2023/05/11 09:03:05;;;;;;;6.90;4.10;;;16.90;86.90;;;;;;4985878;28;20478;-68
2023/05/11 09:05:35;;;;;;;5.23;4.37;;;16.90;87.00;;;;;;5019577;28;20480;-67
2023/05/11 09:08:05;;;;;;;5.07;4.00;;;16.90;86.90;;;;;;5015380;28;20712;-68
2023/05/11 09:10:36;;;;;;;6.20;3.70;;;16.90;87.00;;;;;;4998906;28;20466;-66
2023/05/11 09:13:05;;;;;;;5.67;5.03;;;16.90;87.00;;;;;;5018346;28;20474;-68
2023/05/11 09:15:33;;;;;;;6.40;3.47;;;16.90;87.00;;;;;;4999508;28;20477;-67
2023/05/11 09:18:05;;;;;;;5.50;4.90;;;16.80;86.90;;;;;;5002868;28;20969;-69
2023/05/11 09:20:34;;;;;;;5.80;4.20;;;16.90;87.00;;;;;;5002240;28;20480;-68
2023/05/11 09:23:03;;;;;;;4.27;3.87;;;16.90;86.90;;;;;;5007033;28;21114;-68
2023/05/11 09:25:33;;;;;;;4.20;3.83;;;16.90;86.90;;;;;;4989430;28;20489;-68
2023/05/11 09:28:04;;;;;;;7.60;5.83;;;16.90;87.00;;;;;;5013185;28;20477;-67
2023/05/11 09:30:34;;;;;;;3.93;3.40;;;16.90;86.90;;;;;;5018456;28;20470;-68
2023/05/11 09:33:02;;;;;;;3.73;3.33;;;16.90;86.90;;;;;;5000198;28;21076;-68
2023/05/11 09:35:32;;;;;;;5.17;3.90;;;16.90;86.90;;;;;;5007967;28;20500;-68
2023/05/11 09:38:03;;;;;;;4.37;3.60;;;16.80;86.80;;;;;;5004828;28;20456;-68
2023/05/11 09:40:33;;;;;;;5.57;4.57;;;16.90;87.00;;;;;;4988977;28;21028;-66
2023/05/11 09:43:15;;;;;;;6.40;4.83;;;16.90;86.90;;;;;;5003636;28;20519;-67
2023/05/11 09:45:45;;;;;;;7.03;5.30;;;16.80;86.90;;;;;;5016480;28;20563;-68
2023/05/11 09:48:30;;;;;;;3.70;3.20;;;16.90;87.00;;;;;;5006185;28;20459;-68
2023/05/11 09:51:02;;;;;;;3.90;3.50;;;16.80;86.90;;;;;;5001527;28;20532;-68
2023/05/11 09:53:39;;;;;;;4.00;3.60;;;16.90;87.00;;;;;;5004652;28;20461;-67
2023/05/11 09:56:08;;;;;;;3.37;3.07;;;16.80;86.90;;;;;;4997820;28;20560;-68
2023/05/11 09:58:56;;;;;;;5.70;3.83;;;16.80;86.80;;;;;;5002630;28;20445;-66
2023/05/11 10:01:32;;;;;;;6.07;3.63;;;16.80;86.90;;;;;;4997908;28;20604;-68
2023/05/11 10:04:03;;;;;;;4.07;3.67;;;16.80;86.90;;;;;;5020884;28;20469;-69
2023/05/11 10:06:51;;;;;;;6.20;4.60;;;16.80;87.00;;;;;;5005580;28;20495;-68
2023/05/11 10:09:24;;;;;;;7.53;4.87;;;16.80;86.90;;;;;;5001353;28;20447;-68
2023/05/11 10:11:55;;;;;;;5.73;3.90;;;16.80;86.80;;;;;;5005240;28;20927;-66
2023/05/11 10:14:28;;;;;;;4.80;4.17;;;16.80;86.80;;;;;;5007303;28;21023;-69
2023/05/11 10:16:58;;;;;;;4.80;4.10;;;16.80;86.90;;;;;;5003064;28;20445;-68
2023/05/11 10:19:27;;;;;;;5.77;5.17;;;16.80;87.00;;;;;;5003150;28;20784;-68
2023/05/11 10:21:57;;;;;;;3.63;3.33;;;16.80;87.00;;;;;;5002859;28;20434;-67
2023/05/11 10:24:26;;;;;;;5.80;5.00;;;16.80;87.00;;;;;;5001553;28;20472;-67
2023/05/11 10:26:57;;;;;;;6.13;4.33;;;16.80;86.90;;;;;;5022682;28;20441;-68
2023/05/11 10:29:28;;;;;;;6.97;4.60;;;16.80;87.00;;;;;;5005610;28;20450;-67
2023/05/11 10:31:58;;;;;;;5.77;5.20;;;16.80;87.00;;;;;;5002405;28;20465;-67
2023/05/11 10:34:28;;;;;;;5.67;4.40;;;16.80;86.80;;;;;;4997259;28;20601;-67
2023/05/11 10:37:01;;;;;;;7.50;4.33;;;16.80;86.80;;;;;;5004722;28;20477;-68
2023/05/11 10:39:30;;;;;;;4.00;3.50;;;16.80;86.90;;;;;;5016988;28;20453;-68
2023/05/11 10:42:20;;;;;;;5.07;4.53;;;16.80;87.00;;;;;;5000827;28;20503;-69
2023/05/11 10:45:05;;;;;;;3.47;3.17;;;16.80;87.10;;;;;;4995706;28;20589;-68
2023/05/11 10:48:11;;;;;;;5.93;4.50;;;16.70;88.20;;;;;;5001463;28;20452;-69
2023/05/11 10:50:56;;;;;;;4.47;4.07;;;16.80;87.00;;;;;;5000472;28;20476;-68
2023/05/11 10:53:46;;;;;;;4.30;2.80;;;16.80;87.10;;;;;;4991723;28;20503;-68
2023/05/11 10:56:38;;;;;;;4.33;3.60;;;16.80;87.10;;;;;;5007651;28;20988;-73
2023/05/11 10:59:22;;;;;;;7.10;5.20;;;16.80;87.20;;;;;;4998919;28;20454;-72
2023/05/11 11:01:57;;;;;;;4.70;4.13;;;16.80;87.10;;;;;;5014191;28;20540;-72
2023/05/11 11:04:41;;;;;;;5.03;4.10;;;16.70;87.00;;;;;;4992762;28;21019;-73
2023/05/11 11:07:10;;;;;;;5.03;4.53;;;16.70;87.00;;;;;;4995553;28;20458;-72
2023/05/11 11:09:53;;;;;;;5.03;4.07;;;16.70;86.90;;;;;;5008083;28;20881;-73
2023/05/11 11:12:22;;;;;;;6.73;5.70;;;16.70;87.00;;;;;;5011609;28;20468;-72
2023/05/11 11:14:56;;;;;;;5.40;4.10;;;16.70;86.90;;;;;;4996818;28;20476;-72
2023/05/11 11:17:30;;;;;;;8.13;4.93;;;16.70;87.10;;;;;;5007731;28;20532;-72
2023/05/11 11:20:00;;;;;;;5.00;4.47;;;16.70;86.80;;;;;;5001321;28;20449;-72
2023/05/11 11:22:46;;;;;;;5.17;4.10;;;16.70;87.00;;;;;;5012940;28;20476;-71
2023/05/11 11:25:36;;;;;;;4.77;4.23;;;16.70;87.00;;;;;;5009161;28;20472;-72
2023/05/11 11:28:04;;;;;;;6.10;4.80;;;16.70;87.10;;;;;;5019354;28;20495;-73
2023/05/11 11:30:33;;;;;;;4.67;4.17;;;16.70;87.20;;;;;;5015359;28;21039;-72
2023/05/11 11:33:33;;;;;;;4.73;3.50;;;16.70;87.00;;;;;;5007528;28;20567;-71
2023/05/11 11:36:02;;;;;;;5.53;5.00;;;16.70;87.20;;;;;;5003225;28;20501;-73
2023/05/11 11:38:32;;;;;;;5.07;3.80;;;16.70;87.20;;;;;;5008208;28;20445;-71
2023/05/11 11:41:01;;;;;;;3.93;3.30;;;16.70;87.00;;;;;;5020038;28;20473;-72
2023/05/11 11:43:44;;;;;;;4.17;3.77;;;16.70;88.40;;;;;;5005124;28;20468;-72
2023/05/11 11:46:26;;;;;;;7.17;4.70;;;16.70;87.20;;;;;;5002821;28;20540;-72
2023/05/11 11:49:08;;;;;;;4.83;4.20;;;16.70;87.10;;;;;;4999701;28;20446;-72
2023/05/11 11:51:39;;;;;;;4.33;3.83;;;16.70;87.20;;;;;;5002394;28;20958;-72
2023/05/11 11:54:08;;;;;;;6.33;4.37;;;16.70;87.10;;;;;;4999611;28;20564;-72
2023/05/11 11:56:44;;;;;;;5.67;5.00;;;16.70;87.10;;;;;;5008394;28;20465;-72
2023/05/11 11:59:15;;;;;;;8.60;4.23;;;16.70;87.20;;;;;;5007597;28;20449;-72
2023/05/11 12:01:45;;;;;;;4.70;4.30;;;16.70;87.10;;;;;;5008079;28;20445;-73
2023/05/11 12:04:58;;;;;;;4.47;3.60;;;16.70;87.30;;;;;;5006204;28;20528;-73
2023/05/11 12:07:32;;;;;;;5.73;4.23;;;16.70;87.10;;;;;;4998472;28;20510;-71
2023/05/11 12:10:03;;;;;;;6.23;5.57;;;16.70;87.30;;;;;;5013132;28;20453;-72
2023/05/11 12:12:33;;;;;;;5.93;4.60;;;16.70;87.30;;;;;;5004747;28;20465;-71
2023/05/11 12:15:02;;;;;;;5.63;3.83;;;16.70;87.30;;;;;;5001853;28;20450;-72
2023/05/11 12:17:33;;;;;;;7.03;4.50;;;16.70;87.30;;;;;;5007899;28;20445;-71
2023/05/11 12:20:14;;;;;;;5.33;4.83;;;16.70;87.20;;;;;;5000152;28;21214;-71
2023/05/11 12:22:45;;;;;;;6.40;5.77;;;16.70;87.30;;;;;;4999094;28;20480;-72
2023/05/11 12:25:16;;;;;;;8.13;5.67;;;16.70;87.40;;;;;;5006611;28;20477;-71
2023/05/11 12:27:50;;;;;;;5.20;4.57;;;16.70;87.30;;;;;;5006350;28;21137;-73
2023/05/11 12:30:23;;;;;;;5.50;4.90;;;16.70;87.30;;;;;;5017427;28;20788;-72
2023/05/11 12:32:52;;;;;;;4.27;3.87;;;16.70;87.30;;;;;;4996642;28;20507;-71
2023/05/11 12:35:27;;;;;;;4.30;3.90;;;16.70;87.30;;;;;;5007966;28;20465;-73
2023/05/11 12:37:57;;;;;;;5.23;4.07;;;16.70;87.20;;;;;;5000177;28;20449;-73
2023/05/11 12:40:26;;;;;;;4.93;4.47;;;16.70;87.30;;;;;;5006998;28;20433;-72
2023/05/11 12:42:56;;;;;;;4.60;4.20;;;16.80;87.30;;;;;;5006320;28;20546;-72
2023/05/11 12:45:25;;;;;;;4.87;4.43;;;16.80;87.40;;;;;;5002153;28;20478;-71
2023/05/11 12:47:57;;;;;;;6.53;5.00;;;16.80;87.30;;;;;;5002373;28;20819;-72
2023/05/11 12:50:27;;;;;;;10.23;5.67;;;16.80;87.40;;;;;;5002601;28;20430;-72
2023/05/11 12:53:12;;;;;;;8.60;4.80;;;16.70;88.50;;;;;;5005925;28;20645;-72
2023/05/11 12:55:42;;;;;;;5.90;5.30;;;16.80;87.20;;;;;;5008423;28;20891;-73
2023/05/11 12:58:12;;;;;;;6.40;5.10;;;16.70;87.30;;;;;;5004779;28;20803;-72
2023/05/11 13:00:53;;;;;;;5.17;4.67;;;16.80;87.30;;;;;;5000275;28;20470;-72
2023/05/11 13:03:22;;;;;;;5.63;4.60;;;16.80;87.40;;;;;;5021833;28;20548;-72
2023/05/11 13:05:53;;;;;;;4.70;4.30;;;16.80;87.40;;;;;;5005730;28;20481;-72
2023/05/11 13:08:21;;;;;;;8.10;4.63;;;16.80;87.50;;;;;;4994673;28;20453;-73
2023/05/11 13:10:50;;;;;;;6.03;5.13;;;16.80;87.40;;;;;;5004458;28;20469;-73